sensor_id;sensor_type;location;lat;lon;timestamp;pressure;altitude;pressure_sealevel;temperature;humidity
20612;BME280;10465;42.686;23.364;2023-02-12T00:01:38;95934.66;;;3.47;38.73
20612;BME280;10465;42.686;23.364;2023-02-12T00:04:04;95931.09;;;3.25;39.15
20612;BME280;10465;42.686;23.364;2023-02-12T00:06:29;95931.84;;;3.37;39.30
20612;BME280;10465;42.686;23.364;2023-02-12T00:08:56;95936.84;;;3.39;39.49
20612;BME280;10465;42.686;23.364;2023-02-12T00:11:27;95919.72;;;3.19;39.17
20612;BME280;10465;42.686;23.364;2023-02-12T00:13:53;95949.38;;;3.37;39.42
20612;BME280;10465;42.686;23.364;2023-02-12T00:16:22;95935.97;;;3.33;39.17
20612;BME280;10465;42.686;23.364;2023-02-12T00:18:50;95942.53;;;3.36;39.77
20612;BME280;10465;42.686;23.364;2023-02-12T00:21:16;95948.22;;;3.44;39.90
20612;BME280;10465;42.686;23.364;2023-02-12T00:23:42;95943.78;;;3.45;39.74
20612;BME280;10465;42.686;23.364;2023-02-12T00:26:10;95945.28;;;3.41;39.66
20612;BME280;10465;42.686;23.364;2023-02-12T00:28:35;95914.06;;;3.39;39.31
20612;BME280;10465;42.686;23.364;2023-02-12T00:31:10;95944.00;;;3.43;39.68
20612;BME280;10465;42.686;23.364;2023-02-12T00:33:35;95936.13;;;3.43;39.87
20612;BME280;10465;42.686;23.364;2023-02-12T00:36:01;95874.97;;;3.04;39.86
20612;BME280;10465;42.686;23.364;2023-02-12T00:38:27;95919.13;;;3.29;39.69
20612;BME280;10465;42.686;23.364;2023-02-12T00:40:52;95922.63;;;3.35;39.91
20612;BME280;10465;42.686;23.364;2023-02-12T00:43:18;95912.31;;;3.28;40.23
20612;BME280;10465;42.686;23.364;2023-02-12T00:45:44;95901.56;;;3.01;39.57
20612;BME280;10465;42.686;23.364;2023-02-12T00:48:10;95919.25;;;3.22;39.96
20612;BME280;10465;42.686;23.364;2023-02-12T00:50:35;95913.69;;;3.19;39.97
20612;BME280;10465;42.686;23.364;2023-02-12T00:53:01;95891.66;;;3.03;40.29
20612;BME280;10465;42.686;23.364;2023-02-12T00:55:26;95883.22;;;3.13;40.06
20612;BME280;10465;42.686;23.364;2023-02-12T00:57:51;95904.13;;;3.25;39.90
20612;BME280;10465;42.686;23.364;2023-02-12T01:00:17;95858.56;;;3.09;39.57
20612;BME280;10465;42.686;23.364;2023-02-12T01:02:43;95861.72;;;3.11;39.91
20612;BME280;10465;42.686;23.364;2023-02-12T01:05:08;95897.03;;;3.37;39.99
20612;BME280;10465;42.686;23.364;2023-02-12T01:07:33;95894.16;;;3.38;39.88
20612;BME280;10465;42.686;23.364;2023-02-12T01:09:59;95899.31;;;3.33;39.96
20612;BME280;10465;42.686;23.364;2023-02-12T01:12:24;95890.44;;;3.34;39.74
20612;BME280;10465;42.686;23.364;2023-02-12T01:14:50;95902.47;;;3.35;40.02
20612;BME280;10465;42.686;23.364;2023-02-12T01:17:16;95910.28;;;3.18;40.19
20612;BME280;10465;42.686;23.364;2023-02-12T01:19:41;95900.94;;;3.22;40.47
20612;BME280;10465;42.686;23.364;2023-02-12T01:22:07;95901.50;;;3.25;40.45
20612;BME280;10465;42.686;23.364;2023-02-12T01:24:32;95893.38;;;3.09;41.06
20612;BME280;10465;42.686;23.364;2023-02-12T01:26:58;95889.47;;;3.12;40.75
20612;BME280;10465;42.686;23.364;2023-02-12T01:29:23;95901.31;;;3.14;41.29
20612;BME280;10465;42.686;23.364;2023-02-12T01:31:49;95868.63;;;2.88;40.64
20612;BME280;10465;42.686;23.364;2023-02-12T01:34:14;95892.16;;;3.00;41.02
20612;BME280;10465;42.686;23.364;2023-02-12T01:36:40;95902.25;;;3.08;41.45
20612;BME280;10465;42.686;23.364;2023-02-12T01:39:05;95832.41;;;2.68;41.32
20612;BME280;10465;42.686;23.364;2023-02-12T01:41:34;95899.16;;;3.11;41.24
20612;BME280;10465;42.686;23.364;2023-02-12T01:46:34;95896.94;;;3.20;41.27
20612;BME280;10465;42.686;23.364;2023-02-12T01:49:01;95871.41;;;3.10;41.05
20612;BME280;10465;42.686;23.364;2023-02-12T01:51:28;95884.22;;;3.23;41.77
20612;BME280;10465;42.686;23.364;2023-02-12T01:53:55;95885.69;;;3.19;41.24
20612;BME280;10465;42.686;23.364;2023-02-12T01:56:23;95886.03;;;3.23;41.55
20612;BME280;10465;42.686;23.364;2023-02-12T01:58:50;95880.72;;;3.18;41.18
20612;BME280;10465;42.686;23.364;2023-02-12T02:01:22;95888.09;;;3.21;41.86
20612;BME280;10465;42.686;23.364;2023-02-12T02:03:51;95858.97;;;2.89;41.78
20612;BME280;10465;42.686;23.364;2023-02-12T02:06:22;95888.03;;;3.04;42.43
20612;BME280;10465;42.686;23.364;2023-02-12T02:08:52;95858.19;;;2.77;42.80
20612;BME280;10465;42.686;23.364;2023-02-12T02:11:17;95866.94;;;2.70;43.09
20612;BME280;10465;42.686;23.364;2023-02-12T02:14:01;95890.72;;;2.69;43.82
20612;BME280;10465;42.686;23.364;2023-02-12T02:30:18;95882.19;;;2.62;45.05
20612;BME280;10465;42.686;23.364;2023-02-12T02:38:21;95867.91;;;2.53;45.65
20612;BME280;10465;42.686;23.364;2023-02-12T02:41:01;95871.75;;;2.50;45.46
20612;BME280;10465;42.686;23.364;2023-02-12T02:43:32;95865.63;;;2.44;45.70
20612;BME280;10465;42.686;23.364;2023-02-12T02:46:33;95860.50;;;2.38;46.36
20612;BME280;10465;42.686;23.364;2023-02-12T02:49:04;95867.56;;;2.26;46.27
20612;BME280;10465;42.686;23.364;2023-02-12T02:51:33;95873.91;;;2.30;46.66
20612;BME280;10465;42.686;23.364;2023-02-12T02:54:08;95861.66;;;2.18;46.55
20612;BME280;10465;42.686;23.364;2023-02-12T02:56:38;95860.06;;;2.17;47.69
20612;BME280;10465;42.686;23.364;2023-02-12T02:59:10;95880.28;;;2.34;47.38
20612;BME280;10465;42.686;23.364;2023-02-12T03:01:45;95863.59;;;2.23;47.53
20612;BME280;10465;42.686;23.364;2023-02-12T03:05:02;95883.47;;;2.36;47.54
20612;BME280;10465;42.686;23.364;2023-02-12T03:07:07;95884.59;;;2.52;47.04
20612;BME280;10465;42.686;23.364;2023-02-12T03:09:37;95870.06;;;2.44;46.45
20612;BME280;10465;42.686;23.364;2023-02-12T03:12:11;95876.28;;;2.43;46.71
20612;BME280;10465;42.686;23.364;2023-02-12T03:14:43;95864.72;;;2.39;46.79
20612;BME280;10465;42.686;23.364;2023-02-12T03:17:21;95878.34;;;2.41;47.23
20612;BME280;10465;42.686;23.364;2023-02-12T03:19:55;95870.41;;;2.36;47.33
20612;BME280;10465;42.686;23.364;2023-02-12T03:22:29;95816.56;;;1.88;47.13
20612;BME280;10465;42.686;23.364;2023-02-12T03:25:12;95868.03;;;1.99;47.59
20612;BME280;10465;42.686;23.364;2023-02-12T03:27:55;95863.25;;;2.08;47.90
20612;BME280;10465;42.686;23.364;2023-02-12T03:30:24;95874.94;;;2.29;47.84
20612;BME280;10465;42.686;23.364;2023-02-12T03:35:54;95864.25;;;2.54;46.03
20612;BME280;10465;42.686;23.364;2023-02-12T03:38:29;95868.44;;;2.66;45.83
20612;BME280;10465;42.686;23.364;2023-02-12T03:41:04;95867.28;;;2.74;45.26
20612;BME280;10465;42.686;23.364;2023-02-12T03:43:32;95863.56;;;2.58;45.70
20612;BME280;10465;42.686;23.364;2023-02-12T03:46:21;95855.16;;;2.68;45.81
20612;BME280;10465;42.686;23.364;2023-02-12T03:49:06;95870.47;;;2.88;45.56
20612;BME280;10465;42.686;23.364;2023-02-12T03:51:36;95878.41;;;2.93;45.78
20612;BME280;10465;42.686;23.364;2023-02-12T03:54:03;95872.13;;;2.94;45.81
20612;BME280;10465;42.686;23.364;2023-02-12T03:56:49;95873.63;;;2.90;46.01
20612;BME280;10465;42.686;23.364;2023-02-12T03:59:21;95863.41;;;2.88;45.63
20612;BME280;10465;42.686;23.364;2023-02-12T04:01:48;95844.00;;;2.72;45.38
20612;BME280;10465;42.686;23.364;2023-02-12T04:04:15;95871.09;;;2.95;45.42
20612;BME280;10465;42.686;23.364;2023-02-12T04:06:41;95865.53;;;2.91;45.58
20612;BME280;10465;42.686;23.364;2023-02-12T04:09:09;95875.19;;;2.91;45.94
20612;BME280;10465;42.686;23.364;2023-02-12T04:16:59;95857.75;;;2.80;46.19
20612;BME280;10465;42.686;23.364;2023-02-12T04:25:06;95885.88;;;3.01;46.55
20612;BME280;10465;42.686;23.364;2023-02-12T04:27:56;95872.50;;;2.86;46.29
20612;BME280;10465;42.686;23.364;2023-02-12T04:30:34;95885.91;;;2.89;46.89
20612;BME280;10465;42.686;23.364;2023-02-12T04:33:03;95884.91;;;2.79;46.72
20612;BME280;10465;42.686;23.364;2023-02-12T04:36:14;95895.84;;;2.64;46.76
20612;BME280;10465;42.686;23.364;2023-02-12T04:38:54;95888.00;;;2.76;46.96
20612;BME280;10465;42.686;23.364;2023-02-12T04:41:21;95892.97;;;2.77;47.34
20612;BME280;10465;42.686;23.364;2023-02-12T04:43:47;95887.75;;;2.77;47.01
20612;BME280;10465;42.686;23.364;2023-02-12T04:46:12;95884.34;;;2.77;47.20
20612;BME280;10465;42.686;23.364;2023-02-12T04:48:49;95876.75;;;2.63;47.46
20612;BME280;10465;42.686;23.364;2023-02-12T04:51:16;95899.00;;;2.78;47.36
20612;BME280;10465;42.686;23.364;2023-02-12T04:53:41;95888.53;;;2.78;47.23
20612;BME280;10465;42.686;23.364;2023-02-12T04:56:10;95886.59;;;2.85;46.84
20612;BME280;10465;42.686;23.364;2023-02-12T04:58:35;95903.84;;;2.97;47.00
20612;BME280;10465;42.686;23.364;2023-02-12T05:01:02;95898.97;;;3.01;46.91
20612;BME280;10465;42.686;23.364;2023-02-12T05:03:27;95892.38;;;2.98;47.20
20612;BME280;10465;42.686;23.364;2023-02-12T05:05:52;95891.56;;;2.98;46.91
20612;BME280;10465;42.686;23.364;2023-02-12T05:08:18;95875.91;;;2.86;46.44
20612;BME280;10465;42.686;23.364;2023-02-12T05:10:43;95884.19;;;2.95;46.01
20612;BME280;10465;42.686;23.364;2023-02-12T05:13:09;95877.38;;;2.94;46.49
20612;BME280;10465;42.686;23.364;2023-02-12T05:15:37;95898.34;;;3.11;46.21
20612;BME280;10465;42.686;23.364;2023-02-12T05:18:03;95902.09;;;3.15;45.90
20612;BME280;10465;42.686;23.364;2023-02-12T05:20:28;95903.66;;;3.28;45.27
20612;BME280;10465;42.686;23.364;2023-02-12T05:22:54;95908.13;;;3.15;45.54
20612;BME280;10465;42.686;23.364;2023-02-12T05:25:19;95917.06;;;3.31;45.72
20612;BME280;10465;42.686;23.364;2023-02-12T05:27:45;95930.31;;;3.25;46.33
20612;BME280;10465;42.686;23.364;2023-02-12T05:30:11;95740.97;;;1.93;46.28
20612;BME280;10465;42.686;23.364;2023-02-12T05:32:36;95932.91;;;3.25;46.39
20612;BME280;10465;42.686;23.364;2023-02-12T05:35:02;95920.78;;;3.07;46.61
20612;BME280;10465;42.686;23.364;2023-02-12T05:37:28;95921.31;;;3.20;46.29
20612;BME280;10465;42.686;23.364;2023-02-12T05:39:55;95924.25;;;3.24;45.94
20612;BME280;10465;42.686;23.364;2023-02-12T05:42:21;95915.16;;;3.27;45.80
20612;BME280;10465;42.686;23.364;2023-02-12T05:44:46;95925.91;;;3.42;46.11
20612;BME280;10465;42.686;23.364;2023-02-12T05:47:11;95949.81;;;3.45;46.32
20612;BME280;10465;42.686;23.364;2023-02-12T05:49:37;95932.97;;;3.41;46.73
20612;BME280;10465;42.686;23.364;2023-02-12T05:52:02;95947.38;;;3.56;46.45
20612;BME280;10465;42.686;23.364;2023-02-12T05:54:28;95948.66;;;3.53;47.14
20612;BME280;10465;42.686;23.364;2023-02-12T05:56:53;95955.00;;;3.57;47.29
20612;BME280;10465;42.686;23.364;2023-02-12T05:59:21;95930.22;;;3.08;48.64
20612;BME280;10465;42.686;23.364;2023-02-12T06:01:48;95959.59;;;3.38;49.15
20612;BME280;10465;42.686;23.364;2023-02-12T06:04:17;95964.41;;;3.30;50.33
20612;BME280;10465;42.686;23.364;2023-02-12T06:06:43;95967.00;;;3.41;50.90
20612;BME280;10465;42.686;23.364;2023-02-12T06:09:10;95958.44;;;3.06;52.88
20612;BME280;10465;42.686;23.364;2023-02-12T06:11:36;95924.34;;;2.89;53.29
20612;BME280;10465;42.686;23.364;2023-02-12T06:14:06;95953.19;;;3.17;53.79
20612;BME280;10465;42.686;23.364;2023-02-12T06:16:33;95960.25;;;3.17;54.15
20612;BME280;10465;42.686;23.364;2023-02-12T06:19:01;95962.84;;;3.17;54.18
20612;BME280;10465;42.686;23.364;2023-02-12T06:21:27;95958.97;;;3.19;54.48
20612;BME280;10465;42.686;23.364;2023-02-12T06:23:53;95922.84;;;3.05;54.40
20612;BME280;10465;42.686;23.364;2023-02-12T06:26:19;95944.66;;;3.10;54.80
20612;BME280;10465;42.686;23.364;2023-02-12T06:28:45;95942.50;;;2.95;55.87
20612;BME280;10465;42.686;23.364;2023-02-12T06:33:49;95959.09;;;3.25;56.84
20612;BME280;10465;42.686;23.364;2023-02-12T06:36:15;95972.38;;;3.23;57.99
20612;BME280;10465;42.686;23.364;2023-02-12T06:38:40;95967.59;;;3.20;59.03
20612;BME280;10465;42.686;23.364;2023-02-12T06:41:06;95979.31;;;3.29;59.16
20612;BME280;10465;42.686;23.364;2023-02-12T06:43:31;95955.03;;;3.05;60.60
20612;BME280;10465;42.686;23.364;2023-02-12T06:46:00;95978.22;;;3.13;60.87
20612;BME280;10465;42.686;23.364;2023-02-12T06:48:26;95978.88;;;3.20;61.35
20612;BME280;10465;42.686;23.364;2023-02-12T06:50:52;95981.16;;;3.17;61.29
20612;BME280;10465;42.686;23.364;2023-02-12T06:53:19;95943.53;;;3.06;61.38
20612;BME280;10465;42.686;23.364;2023-02-12T06:55:45;95977.25;;;3.31;61.79
20612;BME280;10465;42.686;23.364;2023-02-12T06:58:10;95961.47;;;3.14;62.12
20612;BME280;10465;42.686;23.364;2023-02-12T07:00:36;95948.06;;;3.11;61.95
20612;BME280;10465;42.686;23.364;2023-02-12T07:03:01;95969.31;;;3.26;62.28
20612;BME280;10465;42.686;23.364;2023-02-12T07:05:27;95937.50;;;3.06;62.53
20612;BME280;10465;42.686;23.364;2023-02-12T07:07:52;95964.31;;;3.25;62.48
20612;BME280;10465;42.686;23.364;2023-02-12T07:10:18;95955.44;;;3.26;62.73
20612;BME280;10465;42.686;23.364;2023-02-12T07:12:44;95978.72;;;3.39;62.62
20612;BME280;10465;42.686;23.364;2023-02-12T07:15:09;95972.69;;;3.38;62.41
20612;BME280;10465;42.686;23.364;2023-02-12T07:17:35;95978.03;;;3.43;62.45
20612;BME280;10465;42.686;23.364;2023-02-12T07:20:01;95987.16;;;3.41;62.50
20612;BME280;10465;42.686;23.364;2023-02-12T07:22:27;95984.53;;;3.41;63.06
20612;BME280;10465;42.686;23.364;2023-02-12T07:24:52;95963.84;;;3.28;62.32
20612;BME280;10465;42.686;23.364;2023-02-12T07:27:18;95983.75;;;3.40;63.00
20612;BME280;10465;42.686;23.364;2023-02-12T07:29:43;95967.16;;;3.23;62.44
20612;BME280;10465;42.686;23.364;2023-02-12T07:32:09;95955.13;;;3.10;62.99
20612;BME280;10465;42.686;23.364;2023-02-12T07:34:34;95962.63;;;3.18;63.07
20612;BME280;10465;42.686;23.364;2023-02-12T07:37:00;95973.50;;;3.27;63.08
20612;BME280;10465;42.686;23.364;2023-02-12T07:39:25;95954.34;;;2.98;63.21
20612;BME280;10465;42.686;23.364;2023-02-12T07:41:51;95979.91;;;3.19;63.28
20612;BME280;10465;42.686;23.364;2023-02-12T07:44:17;95994.69;;;3.26;63.45
20612;BME280;10465;42.686;23.364;2023-02-12T07:46:45;95991.03;;;3.27;63.16
20612;BME280;10465;42.686;23.364;2023-02-12T07:49:13;95994.72;;;3.02;63.69
20612;BME280;10465;42.686;23.364;2023-02-12T07:51:40;95960.28;;;2.70;64.17
20612;BME280;10465;42.686;23.364;2023-02-12T07:54:06;95998.91;;;3.15;63.77
20612;BME280;10465;42.686;23.364;2023-02-12T07:56:33;95982.41;;;3.14;63.33
20612;BME280;10465;42.686;23.364;2023-02-12T07:59:01;95970.03;;;2.98;63.65
20612;BME280;10465;42.686;23.364;2023-02-12T08:01:41;95991.97;;;3.20;63.59
20612;BME280;10465;42.686;23.364;2023-02-12T08:04:09;95991.75;;;3.10;63.78
20612;BME280;10465;42.686;23.364;2023-02-12T08:06:38;95988.44;;;3.15;63.96
20612;BME280;10465;42.686;23.364;2023-02-12T08:09:07;95999.50;;;3.05;64.15
20612;BME280;10465;42.686;23.364;2023-02-12T08:11:34;95967.88;;;2.83;64.56
20612;BME280;10465;42.686;23.364;2023-02-12T08:14:01;95998.47;;;2.94;64.72
20612;BME280;10465;42.686;23.364;2023-02-12T08:16:28;95987.91;;;3.01;64.70
20612;BME280;10465;42.686;23.364;2023-02-12T08:18:55;95997.41;;;3.19;64.31
20612;BME280;10465;42.686;23.364;2023-02-12T08:21:22;95997.66;;;3.29;64.40
20612;BME280;10465;42.686;23.364;2023-02-12T08:23:49;95996.72;;;3.23;64.60
20612;BME280;10465;42.686;23.364;2023-02-12T08:26:17;95998.56;;;3.23;64.21
20612;BME280;10465;42.686;23.364;2023-02-12T08:28:48;96013.00;;;3.37;64.43
20612;BME280;10465;42.686;23.364;2023-02-12T08:31:17;96018.56;;;3.41;65.24
20612;BME280;10465;42.686;23.364;2023-02-12T08:33:45;96016.75;;;3.41;65.22
20612;BME280;10465;42.686;23.364;2023-02-12T08:36:13;96022.09;;;3.35;64.56
20612;BME280;10465;42.686;23.364;2023-02-12T08:38:41;96016.41;;;3.38;64.21
20612;BME280;10465;42.686;23.364;2023-02-12T08:41:29;96033.69;;;3.39;63.89
20612;BME280;10465;42.686;23.364;2023-02-12T08:43:57;96038.22;;;3.43;64.21
20612;BME280;10465;42.686;23.364;2023-02-12T08:46:28;96022.75;;;3.42;63.73
20612;BME280;10465;42.686;23.364;2023-02-12T08:48:57;96009.00;;;3.35;64.12
20612;BME280;10465;42.686;23.364;2023-02-12T08:51:26;96026.28;;;3.47;64.19
20612;BME280;10465;42.686;23.364;2023-02-12T08:53:54;96005.69;;;3.39;63.46
20612;BME280;10465;42.686;23.364;2023-02-12T08:56:21;96047.88;;;3.66;63.65
20612;BME280;10465;42.686;23.364;2023-02-12T08:58:47;96004.34;;;3.37;63.26
20612;BME280;10465;42.686;23.364;2023-02-12T09:01:16;96021.72;;;3.55;63.08
20612;BME280;10465;42.686;23.364;2023-02-12T09:03:42;96050.47;;;3.66;63.15
20612;BME280;10465;42.686;23.364;2023-02-12T09:06:08;96036.88;;;3.53;63.17
20612;BME280;10465;42.686;23.364;2023-02-12T09:08:36;96053.47;;;3.46;63.54
20612;BME280;10465;42.686;23.364;2023-02-12T09:11:28;96059.41;;;3.54;64.00
20612;BME280;10465;42.686;23.364;2023-02-12T09:14:02;96041.09;;;3.30;64.24
20612;BME280;10465;42.686;23.364;2023-02-12T09:16:29;96052.88;;;3.56;64.39
20612;BME280;10465;42.686;23.364;2023-02-12T09:18:55;96060.88;;;3.61;64.12
20612;BME280;10465;42.686;23.364;2023-02-12T09:21:21;96022.66;;;3.37;64.24
20612;BME280;10465;42.686;23.364;2023-02-12T09:23:47;96055.63;;;3.61;64.22
20612;BME280;10465;42.686;23.364;2023-02-12T09:26:15;96059.47;;;3.70;64.60
20612;BME280;10465;42.686;23.364;2023-02-12T09:28:41;96063.56;;;3.78;63.96
20612;BME280;10465;42.686;23.364;2023-02-12T09:31:12;96057.72;;;3.76;63.61
20612;BME280;10465;42.686;23.364;2023-02-12T09:33:39;96056.72;;;3.77;64.03
20612;BME280;10465;42.686;23.364;2023-02-12T09:36:11;96072.63;;;3.87;64.03
20612;BME280;10465;42.686;23.364;2023-02-12T09:38:37;95999.47;;;3.29;63.88
20612;BME280;10465;42.686;23.364;2023-02-12T09:43:43;96075.00;;;3.89;64.62
20612;BME280;10465;42.686;23.364;2023-02-12T09:49:08;96078.28;;;3.96;64.07
20612;BME280;10465;42.686;23.364;2023-02-12T09:51:35;96058.66;;;3.82;64.26
20612;BME280;10465;42.686;23.364;2023-02-12T09:54:11;96049.75;;;3.83;63.88
20612;BME280;10465;42.686;23.364;2023-02-12T09:56:41;96076.44;;;4.08;63.54
20612;BME280;10465;42.686;23.364;2023-02-12T09:59:07;96082.63;;;4.02;63.47
20612;BME280;10465;42.686;23.364;2023-02-12T10:01:34;96079.84;;;4.09;63.98
20612;BME280;10465;42.686;23.364;2023-02-12T10:04:00;96072.59;;;4.28;63.02
20612;BME280;10465;42.686;23.364;2023-02-12T10:06:28;96070.63;;;4.35;62.93
20612;BME280;10465;42.686;23.364;2023-02-12T10:14:54;96084.28;;;4.37;62.17
20612;BME280;10465;42.686;23.364;2023-02-12T10:23:07;96093.97;;;4.99;60.17
20612;BME280;10465;42.686;23.364;2023-02-12T10:25:48;96091.03;;;5.12;59.48
20612;BME280;10465;42.686;23.364;2023-02-12T10:28:23;96078.94;;;5.11;59.24
20612;BME280;10465;42.686;23.364;2023-02-12T10:33:45;96084.66;;;5.25;59.32
20612;BME280;10465;42.686;23.364;2023-02-12T10:36:36;96079.22;;;5.14;59.30
20612;BME280;10465;42.686;23.364;2023-02-12T10:39:25;96081.56;;;5.11;59.47
20612;BME280;10465;42.686;23.364;2023-02-12T10:41:56;96057.00;;;5.00;59.16
20612;BME280;10465;42.686;23.364;2023-02-12T10:44:23;96072.88;;;5.10;59.57
20612;BME280;10465;42.686;23.364;2023-02-12T10:46:49;96073.44;;;5.12;59.41
20612;BME280;10465;42.686;23.364;2023-02-12T10:49:17;96083.09;;;5.07;59.16
20612;BME280;10465;42.686;23.364;2023-02-12T10:52:08;96062.97;;;4.95;59.64
20612;BME280;10465;42.686;23.364;2023-02-12T10:54:42;96081.06;;;5.14;59.38
20612;BME280;10465;42.686;23.364;2023-02-12T10:57:29;96095.63;;;5.05;60.02
20612;BME280;10465;42.686;23.364;2023-02-12T10:59:56;96091.81;;;4.95;59.82
20612;BME280;10465;42.686;23.364;2023-02-12T11:02:38;96078.13;;;4.93;59.65
20612;BME280;10465;42.686;23.364;2023-02-12T11:05:23;96087.03;;;5.09;59.40
20612;BME280;10465;42.686;23.364;2023-02-12T11:07:50;96080.69;;;5.05;59.64
20612;BME280;10465;42.686;23.364;2023-02-12T11:10:48;96087.03;;;5.09;59.63
20612;BME280;10465;42.686;23.364;2023-02-12T11:13:22;96086.97;;;5.21;59.16
20612;BME280;10465;42.686;23.364;2023-02-12T11:15:49;96075.72;;;5.26;59.20
20612;BME280;10465;42.686;23.364;2023-02-12T11:18:26;96057.13;;;5.27;58.41
20612;BME280;10465;42.686;23.364;2023-02-12T11:23:36;96080.72;;;5.66;57.92
20612;BME280;10465;42.686;23.364;2023-02-12T11:28:53;96080.88;;;5.76;57.50
20612;BME280;10465;42.686;23.364;2023-02-12T11:31:23;96071.22;;;5.82;57.20
20612;BME280;10465;42.686;23.364;2023-02-12T11:36:44;96077.19;;;5.77;57.35
20612;BME280;10465;42.686;23.364;2023-02-12T11:41:42;96050.78;;;5.67;57.13
20612;BME280;10465;42.686;23.364;2023-02-12T11:44:15;96080.97;;;5.86;56.75
20612;BME280;10465;42.686;23.364;2023-02-12T11:46:47;96075.59;;;5.93;56.48
20612;BME280;10465;42.686;23.364;2023-02-12T11:49:20;96079.41;;;5.85;56.13
20612;BME280;10465;42.686;23.364;2023-02-12T11:51:48;96069.19;;;5.67;56.67
20612;BME280;10465;42.686;23.364;2023-02-12T11:54:23;96071.53;;;5.63;56.84
20612;BME280;10465;42.686;23.364;2023-02-12T11:56:49;96079.25;;;5.75;57.08
20612;BME280;10465;42.686;23.364;2023-02-12T11:59:32;96081.19;;;5.80;57.67
20612;BME280;10465;42.686;23.364;2023-02-12T12:02:03;96074.31;;;5.79;57.75
20612;BME280;10465;42.686;23.364;2023-02-12T12:04:32;96080.84;;;5.93;57.54
20612;BME280;10465;42.686;23.364;2023-02-12T12:07:02;96089.25;;;5.95;57.64
20612;BME280;10465;42.686;23.364;2023-02-12T12:09:41;96043.16;;;5.65;57.10
20612;BME280;10465;42.686;23.364;2023-02-12T12:15:03;96073.00;;;5.76;57.09
20612;BME280;10465;42.686;23.364;2023-02-12T12:18:03;96077.63;;;5.91;56.95
20612;BME280;10465;42.686;23.364;2023-02-12T12:20:55;96078.81;;;6.00;56.83
20612;BME280;10465;42.686;23.364;2023-02-12T12:23:39;96088.28;;;6.01;57.24
20612;BME280;10465;42.686;23.364;2023-02-12T12:26:11;96099.28;;;5.98;57.65
20612;BME280;10465;42.686;23.364;2023-02-12T12:31:16;96090.56;;;5.92;57.97
20612;BME280;10465;42.686;23.364;2023-02-12T12:36:50;96098.75;;;5.96;57.62
20612;BME280;10465;42.686;23.364;2023-02-12T12:39:33;96094.53;;;5.95;56.51
20612;BME280;10465;42.686;23.364;2023-02-12T12:49:57;96099.91;;;6.05;57.41
20612;BME280;10465;42.686;23.364;2023-02-12T12:58:42;96100.88;;;5.99;57.21
20612;BME280;10465;42.686;23.364;2023-02-12T13:01:22;96115.84;;;5.99;57.05
20612;BME280;10465;42.686;23.364;2023-02-12T13:18:38;96083.25;;;5.78;57.62
20612;BME280;10465;42.686;23.364;2023-02-12T13:21:35;96097.75;;;5.80;57.52
20612;BME280;10465;42.686;23.364;2023-02-12T13:29:25;96118.44;;;5.93;57.90
20612;BME280;10465;42.686;23.364;2023-02-12T13:32:03;96048.97;;;5.45;57.93
20612;BME280;10465;42.686;23.364;2023-02-12T13:34:31;96058.50;;;5.52;57.98
20612;BME280;10465;42.686;23.364;2023-02-12T13:37:03;96111.72;;;5.86;58.14
20612;BME280;10465;42.686;23.364;2023-02-12T13:39:39;96111.09;;;5.79;57.87
20612;BME280;10465;42.686;23.364;2023-02-12T13:42:11;96128.69;;;5.95;58.22
20612;BME280;10465;42.686;23.364;2023-02-12T13:47:43;96137.13;;;5.97;57.95
20612;BME280;10465;42.686;23.364;2023-02-12T13:51:06;96139.44;;;5.93;57.49
20612;BME280;10465;42.686;23.364;2023-02-12T13:53:31;96138.88;;;5.91;58.04
20612;BME280;10465;42.686;23.364;2023-02-12T13:58:38;96141.84;;;5.78;58.00
20612;BME280;10465;42.686;23.364;2023-02-12T14:01:09;96143.75;;;5.83;57.98
20612;BME280;10465;42.686;23.364;2023-02-12T14:03:36;96146.16;;;5.84;58.29
20612;BME280;10465;42.686;23.364;2023-02-12T14:06:18;96158.31;;;5.90;57.96
20612;BME280;10465;42.686;23.364;2023-02-12T14:08:53;96141.00;;;5.73;57.72
20612;BME280;10465;42.686;23.364;2023-02-12T14:11:31;96148.84;;;5.89;57.83
20612;BME280;10465;42.686;23.364;2023-02-12T14:13:59;96158.78;;;5.87;58.02
20612;BME280;10465;42.686;23.364;2023-02-12T14:22:00;96165.56;;;5.83;58.55
20612;BME280;10465;42.686;23.364;2023-02-12T14:27:02;96135.53;;;5.57;58.74
20612;BME280;10465;42.686;23.364;2023-02-12T14:29:28;96110.56;;;5.38;58.73
20612;BME280;10465;42.686;23.364;2023-02-12T14:31:53;96185.31;;;5.86;58.49
20612;BME280;10465;42.686;23.364;2023-02-12T14:36:46;96183.25;;;5.88;58.67
20612;BME280;10465;42.686;23.364;2023-02-12T14:50:14;96193.06;;;5.42;59.55
20612;BME280;10465;42.686;23.364;2023-02-12T14:52:43;96205.09;;;5.55;59.73
20612;BME280;10465;42.686;23.364;2023-02-12T14:55:26;96207.81;;;5.60;59.83
20612;BME280;10465;42.686;23.364;2023-02-12T14:57:58;96187.94;;;5.47;59.63
20612;BME280;10465;42.686;23.364;2023-02-12T15:00:37;96216.47;;;5.60;59.29
20612;BME280;10465;42.686;23.364;2023-02-12T15:05:42;96228.25;;;5.58;59.85
20612;BME280;10465;42.686;23.364;2023-02-12T15:10:49;96213.69;;;5.33;60.50
20612;BME280;10465;42.686;23.364;2023-02-12T15:15:53;96246.25;;;5.49;60.41
20612;BME280;10465;42.686;23.364;2023-02-12T15:21:20;96244.72;;;5.36;60.58
20612;BME280;10465;42.686;23.364;2023-02-12T15:24:06;96261.63;;;5.40;61.21
20612;BME280;10465;42.686;23.364;2023-02-12T15:26:44;96272.44;;;5.27;61.05
20612;BME280;10465;42.686;23.364;2023-02-12T15:29:24;96278.09;;;5.36;61.31
20612;BME280;10465;42.686;23.364;2023-02-12T15:31:56;96288.34;;;5.37;61.54
20612;BME280;10465;42.686;23.364;2023-02-12T15:34:25;96283.00;;;5.32;61.67
20612;BME280;10465;42.686;23.364;2023-02-12T15:36:54;96273.88;;;5.35;61.19
20612;BME280;10465;42.686;23.364;2023-02-12T15:39:21;96284.84;;;5.32;61.44
20612;BME280;10465;42.686;23.364;2023-02-12T15:41:48;96302.13;;;5.44;61.54
20612;BME280;10465;42.686;23.364;2023-02-12T15:47:13;96251.94;;;5.12;62.21
20612;BME280;10465;42.686;23.364;2023-02-12T15:49:40;96304.16;;;5.42;62.21